sensor_id;sensor_type;location;lat;lon;timestamp;P1;durP1;ratioP1;P2;durP2;ratioP2
18820;SDS011;9539;59.332;18.034;2023-03-14T00:00:42;5.72;;;1.60;;
18820;SDS011;9539;59.332;18.034;2023-03-14T00:03:04;4.18;;;1.67;;
18820;SDS011;9539;59.332;18.034;2023-03-14T00:05:26;5.35;;;1.80;;
18820;SDS011;9539;59.332;18.034;2023-03-14T00:07:48;5.53;;;1.80;;
18820;SDS011;9539;59.332;18.034;2023-03-14T00:10:12;4.30;;;1.50;;
18820;SDS011;9539;59.332;18.034;2023-03-14T00:12:36;4.30;;;1.75;;
18820;SDS011;9539;59.332;18.034;2023-03-14T00:14:58;3.03;;;1.50;;
18820;SDS011;9539;59.332;18.034;2023-03-14T00:17:21;4.22;;;1.77;;
18820;SDS011;9539;59.332;18.034;2023-03-14T00:19:43;3.40;;;1.80;;
18820;SDS011;9539;59.332;18.034;2023-03-14T00:22:05;5.30;;;1.40;;
18820;SDS011;9539;59.332;18.034;2023-03-14T00:24:27;3.70;;;1.50;;
18820;SDS011;9539;59.332;18.034;2023-03-14T00:26:49;4.20;;;1.50;;
18820;SDS011;9539;59.332;18.034;2023-03-14T00:29:11;5.60;;;1.63;;
18820;SDS011;9539;59.332;18.034;2023-03-14T00:31:33;4.18;;;1.50;;
18820;SDS011;9539;59.332;18.034;2023-03-14T00:33:57;4.70;;;1.42;;
18820;SDS011;9539;59.332;18.034;2023-03-14T00:36:19;5.35;;;1.70;;
18820;SDS011;9539;59.332;18.034;2023-03-14T00:38:42;5.63;;;1.48;;
18820;SDS011;9539;59.332;18.034;2023-03-14T00:41:06;2.55;;;1.27;;
18820;SDS011;9539;59.332;18.034;2023-03-14T00:43:29;4.57;;;1.70;;
18820;SDS011;9539;59.332;18.034;2023-03-14T00:45:51;3.85;;;1.67;;
18820;SDS011;9539;59.332;18.034;2023-03-14T00:48:14;3.92;;;1.63;;
18820;SDS011;9539;59.332;18.034;2023-03-14T00:50:37;3.10;;;1.35;;
18820;SDS011;9539;59.332;18.034;2023-03-14T00:52:59;2.67;;;1.20;;
18820;SDS011;9539;59.332;18.034;2023-03-14T00:55:21;3.85;;;1.33;;
18820;SDS011;9539;59.332;18.034;2023-03-14T00:57:43;6.97;;;1.70;;
18820;SDS011;9539;59.332;18.034;2023-03-14T01:00:05;3.55;;;1.42;;
18820;SDS011;9539;59.332;18.034;2023-03-14T01:02:31;3.25;;;1.50;;
18820;SDS011;9539;59.332;18.034;2023-03-14T01:04:53;4.13;;;1.60;;
18820;SDS011;9539;59.332;18.034;2023-03-14T01:07:16;3.45;;;1.50;;
18820;SDS011;9539;59.332;18.034;2023-03-14T01:09:38;4.50;;;1.65;;
18820;SDS011;9539;59.332;18.034;2023-03-14T01:12:00;4.30;;;1.40;;
18820;SDS011;9539;59.332;18.034;2023-03-14T01:14:22;5.03;;;1.42;;
18820;SDS011;9539;59.332;18.034;2023-03-14T01:16:44;5.03;;;1.50;;
18820;SDS011;9539;59.332;18.034;2023-03-14T01:19:06;6.82;;;1.40;;
18820;SDS011;9539;59.332;18.034;2023-03-14T01:21:28;4.55;;;1.50;;
18820;SDS011;9539;59.332;18.034;2023-03-14T01:23:53;4.68;;;1.40;;
18820;SDS011;9539;59.332;18.034;2023-03-14T01:26:17;2.50;;;1.25;;
18820;SDS011;9539;59.332;18.034;2023-03-14T01:28:41;3.53;;;1.48;;
18820;SDS011;9539;59.332;18.034;2023-03-14T01:31:03;3.83;;;1.30;;
18820;SDS011;9539;59.332;18.034;2023-03-14T01:33:26;4.32;;;1.70;;
18820;SDS011;9539;59.332;18.034;2023-03-14T01:35:49;3.53;;;1.42;;
18820;SDS011;9539;59.332;18.034;2023-03-14T01:38:11;4.55;;;1.30;;
18820;SDS011;9539;59.332;18.034;2023-03-14T01:40:34;2.05;;;1.20;;
18820;SDS011;9539;59.332;18.034;2023-03-14T01:43:06;3.50;;;1.10;;
18820;SDS011;9539;59.332;18.034;2023-03-14T01:48:42;2.45;;;1.30;;
18820;SDS011;9539;59.332;18.034;2023-03-14T01:51:09;3.75;;;1.20;;
18820;SDS011;9539;59.332;18.034;2023-03-14T01:53:34;3.38;;;1.38;;
18820;SDS011;9539;59.332;18.034;2023-03-14T01:55:59;2.47;;;1.30;;
18820;SDS011;9539;59.332;18.034;2023-03-14T01:58:21;2.05;;;1.20;;
18820;SDS011;9539;59.332;18.034;2023-03-14T02:00:47;2.20;;;1.02;;
18820;SDS011;9539;59.332;18.034;2023-03-14T02:03:09;2.67;;;1.17;;
18820;SDS011;9539;59.332;18.034;2023-03-14T02:05:35;2.47;;;1.20;;
18820;SDS011;9539;59.332;18.034;2023-03-14T02:08:00;3.25;;;1.10;;
18820;SDS011;9539;59.332;18.034;2023-03-14T02:10:24;4.55;;;1.17;;
18820;SDS011;9539;59.332;18.034;2023-03-14T02:12:50;3.40;;;1.25;;
18820;SDS011;9539;59.332;18.034;2023-03-14T02:15:15;2.78;;;1.25;;
18820;SDS011;9539;59.332;18.034;2023-03-14T02:17:37;4.30;;;1.10;;
18820;SDS011;9539;59.332;18.034;2023-03-14T02:22:45;2.50;;;1.13;;
18820;SDS011;9539;59.332;18.034;2023-03-14T02:25:08;2.85;;;1.23;;
18820;SDS011;9539;59.332;18.034;2023-03-14T02:27:37;4.00;;;1.52;;
18820;SDS011;9539;59.332;18.034;2023-03-14T02:30:00;1.48;;;1.08;;
18820;SDS011;9539;59.332;18.034;2023-03-14T02:32:23;3.83;;;1.15;;
18820;SDS011;9539;59.332;18.034;2023-03-14T02:34:49;2.38;;;1.00;;
18820;SDS011;9539;59.332;18.034;2023-03-14T02:37:13;4.95;;;1.00;;
18820;SDS011;9539;59.332;18.034;2023-03-14T02:39:41;1.45;;;1.02;;
18820;SDS011;9539;59.332;18.034;2023-03-14T02:42:05;2.75;;;1.30;;
18820;SDS011;9539;59.332;18.034;2023-03-14T02:44:29;1.63;;;1.10;;
18820;SDS011;9539;59.332;18.034;2023-03-14T02:46:51;3.72;;;1.23;;
18820;SDS011;9539;59.332;18.034;2023-03-14T02:49:13;3.80;;;1.42;;
18820;SDS011;9539;59.332;18.034;2023-03-14T02:51:36;4.38;;;1.30;;
18820;SDS011;9539;59.332;18.034;2023-03-14T02:53:58;2.47;;;1.30;;
18820;SDS011;9539;59.332;18.034;2023-03-14T02:56:20;4.95;;;1.20;;
18820;SDS011;9539;59.332;18.034;2023-03-14T02:58:42;3.97;;;1.33;;
18820;SDS011;9539;59.332;18.034;2023-03-14T03:01:06;3.80;;;1.20;;
18820;SDS011;9539;59.332;18.034;2023-03-14T03:03:28;5.47;;;1.42;;
18820;SDS011;9539;59.332;18.034;2023-03-14T03:05:50;4.22;;;1.30;;
18820;SDS011;9539;59.332;18.034;2023-03-14T03:08:13;4.03;;;1.20;;
18820;SDS011;9539;59.332;18.034;2023-03-14T03:10:35;3.72;;;1.20;;
18820;SDS011;9539;59.332;18.034;2023-03-14T03:12:57;4.70;;;1.30;;
18820;SDS011;9539;59.332;18.034;2023-03-14T03:15:19;4.13;;;1.20;;
18820;SDS011;9539;59.332;18.034;2023-03-14T03:17:43;3.40;;;1.30;;
18820;SDS011;9539;59.332;18.034;2023-03-14T03:20:05;4.03;;;1.42;;
18820;SDS011;9539;59.332;18.034;2023-03-14T03:22:29;2.25;;;1.25;;
18820;SDS011;9539;59.332;18.034;2023-03-14T03:24:51;3.42;;;1.30;;
18820;SDS011;9539;59.332;18.034;2023-03-14T03:27:12;2.35;;;1.30;;
18820;SDS011;9539;59.332;18.034;2023-03-14T03:29:34;1.00;;;1.00;;
18820;SDS011;9539;59.332;18.034;2023-03-14T03:31:56;1.95;;;1.10;;
18820;SDS011;9539;59.332;18.034;2023-03-14T03:34:20;1.60;;;1.02;;
18820;SDS011;9539;59.332;18.034;2023-03-14T03:36:41;2.42;;;1.38;;
18820;SDS011;9539;59.332;18.034;2023-03-14T03:39:03;2.42;;;1.10;;
18820;SDS011;9539;59.332;18.034;2023-03-14T03:41:25;2.45;;;1.05;;
18820;SDS011;9539;59.332;18.034;2023-03-14T03:43:47;1.50;;;1.00;;
18820;SDS011;9539;59.332;18.034;2023-03-14T03:46:10;3.25;;;1.08;;
18820;SDS011;9539;59.332;18.034;2023-03-14T03:48:31;0.93;;;0.90;;
18820;SDS011;9539;59.332;18.034;2023-03-14T03:50:55;2.50;;;1.00;;
18820;SDS011;9539;59.332;18.034;2023-03-14T03:53:17;1.63;;;0.90;;
18820;SDS011;9539;59.332;18.034;2023-03-14T03:55:40;1.85;;;1.00;;
18820;SDS011;9539;59.332;18.034;2023-03-14T03:58:02;1.27;;;0.93;;
18820;SDS011;9539;59.332;18.034;2023-03-14T04:00:24;2.92;;;1.02;;
18820;SDS011;9539;59.332;18.034;2023-03-14T04:02:46;2.78;;;1.13;;
18820;SDS011;9539;59.332;18.034;2023-03-14T04:05:08;3.05;;;1.08;;
18820;SDS011;9539;59.332;18.034;2023-03-14T04:07:32;0.85;;;0.80;;
18820;SDS011;9539;59.332;18.034;2023-03-14T04:09:54;2.22;;;1.00;;
18820;SDS011;9539;59.332;18.034;2023-03-14T04:12:16;1.73;;;1.00;;
18820;SDS011;9539;59.332;18.034;2023-03-14T04:14:38;1.42;;;0.90;;
18820;SDS011;9539;59.332;18.034;2023-03-14T04:17:01;1.65;;;1.10;;
18820;SDS011;9539;59.332;18.034;2023-03-14T04:19:23;1.98;;;1.25;;
18820;SDS011;9539;59.332;18.034;2023-03-14T04:21:45;1.65;;;1.13;;
18820;SDS011;9539;59.332;18.034;2023-03-14T04:24:08;3.42;;;1.20;;
18820;SDS011;9539;59.332;18.034;2023-03-14T04:26:30;3.28;;;1.20;;
18820;SDS011;9539;59.332;18.034;2023-03-14T04:28:52;2.35;;;1.20;;
18820;SDS011;9539;59.332;18.034;2023-03-14T04:31:16;4.43;;;1.35;;
18820;SDS011;9539;59.332;18.034;2023-03-14T04:33:40;4.63;;;1.30;;
18820;SDS011;9539;59.332;18.034;2023-03-14T04:36:02;1.58;;;1.05;;
18820;SDS011;9539;59.332;18.034;2023-03-14T04:38:25;1.58;;;1.15;;
18820;SDS011;9539;59.332;18.034;2023-03-14T04:40:48;2.67;;;1.20;;
18820;SDS011;9539;59.332;18.034;2023-03-14T04:43:11;2.83;;;1.25;;
18820;SDS011;9539;59.332;18.034;2023-03-14T04:45:33;1.58;;;1.15;;
18820;SDS011;9539;59.332;18.034;2023-03-14T04:47:55;1.58;;;1.30;;
18820;SDS011;9539;59.332;18.034;2023-03-14T04:50:17;1.92;;;1.30;;
18820;SDS011;9539;59.332;18.034;2023-03-14T04:52:39;1.60;;;1.10;;
18820;SDS011;9539;59.332;18.034;2023-03-14T04:55:01;2.03;;;1.20;;
18820;SDS011;9539;59.332;18.034;2023-03-14T04:57:24;2.75;;;1.17;;
18820;SDS011;9539;59.332;18.034;2023-03-14T04:59:46;2.45;;;1.10;;
18820;SDS011;9539;59.332;18.034;2023-03-14T05:02:08;1.33;;;1.23;;
18820;SDS011;9539;59.332;18.034;2023-03-14T05:04:30;2.53;;;1.38;;
18820;SDS011;9539;59.332;18.034;2023-03-14T05:06:53;3.25;;;1.20;;
18820;SDS011;9539;59.332;18.034;2023-03-14T05:09:15;1.88;;;1.33;;
18820;SDS011;9539;59.332;18.034;2023-03-14T05:11:37;2.13;;;1.20;;
18820;SDS011;9539;59.332;18.034;2023-03-14T05:14:01;2.83;;;1.35;;
18820;SDS011;9539;59.332;18.034;2023-03-14T05:16:22;4.95;;;1.20;;
18820;SDS011;9539;59.332;18.034;2023-03-14T05:18:44;2.55;;;1.40;;
18820;SDS011;9539;59.332;18.034;2023-03-14T05:21:06;2.97;;;1.50;;
18820;SDS011;9539;59.332;18.034;2023-03-14T05:23:28;5.20;;;1.35;;
18820;SDS011;9539;59.332;18.034;2023-03-14T05:25:51;3.90;;;1.50;;
18820;SDS011;9539;59.332;18.034;2023-03-14T05:28:13;4.45;;;1.45;;
18820;SDS011;9539;59.332;18.034;2023-03-14T05:30:36;4.07;;;1.33;;
18820;SDS011;9539;59.332;18.034;2023-03-14T05:32:58;3.70;;;1.67;;
18820;SDS011;9539;59.332;18.034;2023-03-14T05:35:20;4.07;;;1.80;;
18820;SDS011;9539;59.332;18.034;2023-03-14T05:37:41;5.00;;;1.58;;
18820;SDS011;9539;59.332;18.034;2023-03-14T05:40:04;5.28;;;1.65;;
18820;SDS011;9539;59.332;18.034;2023-03-14T05:42:27;4.40;;;1.33;;
18820;SDS011;9539;59.332;18.034;2023-03-14T05:44:49;3.88;;;1.38;;
18820;SDS011;9539;59.332;18.034;2023-03-14T05:47:12;3.58;;;1.40;;
18820;SDS011;9539;59.332;18.034;2023-03-14T05:49:34;5.88;;;1.63;;
18820;SDS011;9539;59.332;18.034;2023-03-14T05:51:56;5.47;;;1.50;;
18820;SDS011;9539;59.332;18.034;2023-03-14T05:54:18;4.07;;;1.70;;
18820;SDS011;9539;59.332;18.034;2023-03-14T05:56:40;3.72;;;1.45;;
18820;SDS011;9539;59.332;18.034;2023-03-14T05:59:02;8.93;;;1.90;;
18820;SDS011;9539;59.332;18.034;2023-03-14T06:01:24;6.78;;;1.50;;
18820;SDS011;9539;59.332;18.034;2023-03-14T06:03:47;6.00;;;1.73;;
18820;SDS011;9539;59.332;18.034;2023-03-14T06:06:09;8.30;;;1.85;;
18820;SDS011;9539;59.332;18.034;2023-03-14T06:08:31;5.80;;;1.50;;
18820;SDS011;9539;59.332;18.034;2023-03-14T06:10:54;5.00;;;1.67;;
18820;SDS011;9539;59.332;18.034;2023-03-14T06:13:18;6.18;;;1.75;;
18820;SDS011;9539;59.332;18.034;2023-03-14T06:15:40;4.85;;;1.60;;
18820;SDS011;9539;59.332;18.034;2023-03-14T06:18:02;4.80;;;1.67;;
18820;SDS011;9539;59.332;18.034;2023-03-14T06:20:26;7.13;;;1.90;;
18820;SDS011;9539;59.332;18.034;2023-03-14T06:22:47;6.88;;;2.03;;
18820;SDS011;9539;59.332;18.034;2023-03-14T06:25:09;2.47;;;1.20;;
18820;SDS011;9539;59.332;18.034;2023-03-14T06:27:31;6.15;;;1.77;;
18820;SDS011;9539;59.332;18.034;2023-03-14T06:29:53;5.75;;;1.55;;
18820;SDS011;9539;59.332;18.034;2023-03-14T06:32:15;4.43;;;1.63;;
18820;SDS011;9539;59.332;18.034;2023-03-14T06:34:38;5.35;;;1.80;;
18820;SDS011;9539;59.332;18.034;2023-03-14T06:37:02;2.13;;;1.30;;
18820;SDS011;9539;59.332;18.034;2023-03-14T06:39:24;4.20;;;1.50;;
18820;SDS011;9539;59.332;18.034;2023-03-14T06:41:46;4.93;;;1.60;;
18820;SDS011;9539;59.332;18.034;2023-03-14T06:44:08;4.60;;;1.55;;
18820;SDS011;9539;59.332;18.034;2023-03-14T06:46:31;4.10;;;1.30;;
18820;SDS011;9539;59.332;18.034;2023-03-14T06:48:53;3.20;;;1.38;;
18820;SDS011;9539;59.332;18.034;2023-03-14T06:51:15;4.00;;;1.85;;
18820;SDS011;9539;59.332;18.034;2023-03-14T06:53:38;4.60;;;1.48;;
18820;SDS011;9539;59.332;18.034;2023-03-14T06:56:00;4.90;;;1.30;;
18820;SDS011;9539;59.332;18.034;2023-03-14T06:58:22;4.05;;;1.42;;
18820;SDS011;9539;59.332;18.034;2023-03-14T07:00:44;3.90;;;1.30;;
18820;SDS011;9539;59.332;18.034;2023-03-14T07:03:06;3.17;;;1.20;;
18820;SDS011;9539;59.332;18.034;2023-03-14T07:05:28;5.72;;;1.58;;
18820;SDS011;9539;59.332;18.034;2023-03-14T07:07:50;5.03;;;1.30;;
18820;SDS011;9539;59.332;18.034;2023-03-14T07:10:14;5.43;;;1.20;;
18820;SDS011;9539;59.332;18.034;2023-03-14T07:12:36;6.70;;;1.50;;
18820;SDS011;9539;59.332;18.034;2023-03-14T07:14:58;4.25;;;1.33;;
18820;SDS011;9539;59.332;18.034;2023-03-14T07:17:19;3.55;;;1.30;;
18820;SDS011;9539;59.332;18.034;2023-03-14T07:19:41;3.45;;;1.30;;
18820;SDS011;9539;59.332;18.034;2023-03-14T07:22:03;6.47;;;1.38;;
18820;SDS011;9539;59.332;18.034;2023-03-14T07:24:25;5.05;;;1.48;;
18820;SDS011;9539;59.332;18.034;2023-03-14T07:26:49;3.45;;;1.30;;
18820;SDS011;9539;59.332;18.034;2023-03-14T07:29:11;3.03;;;1.13;;
18820;SDS011;9539;59.332;18.034;2023-03-14T07:31:33;3.58;;;1.20;;
18820;SDS011;9539;59.332;18.034;2023-03-14T07:33:55;2.45;;;1.30;;
18820;SDS011;9539;59.332;18.034;2023-03-14T07:36:17;3.35;;;1.30;;
18820;SDS011;9539;59.332;18.034;2023-03-14T07:38:38;3.97;;;1.45;;
18820;SDS011;9539;59.332;18.034;2023-03-14T07:41:00;3.75;;;1.20;;
18820;SDS011;9539;59.332;18.034;2023-03-14T07:43:24;3.00;;;1.30;;
18820;SDS011;9539;59.332;18.034;2023-03-14T07:45:46;3.17;;;1.27;;
18820;SDS011;9539;59.332;18.034;2023-03-14T07:48:08;3.40;;;1.08;;
18820;SDS011;9539;59.332;18.034;2023-03-14T07:50:30;3.38;;;1.15;;
18820;SDS011;9539;59.332;18.034;2023-03-14T07:52:52;1.20;;;0.90;;
18820;SDS011;9539;59.332;18.034;2023-03-14T07:55:15;2.13;;;1.20;;
18820;SDS011;9539;59.332;18.034;2023-03-14T07:57:38;3.50;;;1.25;;
18820;SDS011;9539;59.332;18.034;2023-03-14T08:00:01;1.83;;;1.13;;
18820;SDS011;9539;59.332;18.034;2023-03-14T08:02:25;1.40;;;0.95;;
18820;SDS011;9539;59.332;18.034;2023-03-14T08:04:47;1.63;;;0.93;;
18820;SDS011;9539;59.332;18.034;2023-03-14T08:07:09;3.58;;;1.02;;
18820;SDS011;9539;59.332;18.034;2023-03-14T08:09:31;2.53;;;1.40;;
18820;SDS011;9539;59.332;18.034;2023-03-14T08:11:53;1.63;;;0.98;;
18820;SDS011;9539;59.332;18.034;2023-03-14T08:14:15;2.33;;;1.25;;
18820;SDS011;9539;59.332;18.034;2023-03-14T08:16:38;1.20;;;1.00;;
18820;SDS011;9539;59.332;18.034;2023-03-14T08:19:00;3.22;;;1.20;;
18820;SDS011;9539;59.332;18.034;2023-03-14T08:21:22;1.55;;;0.80;;
18820;SDS011;9539;59.332;18.034;2023-03-14T08:23:44;1.35;;;1.00;;
18820;SDS011;9539;59.332;18.034;2023-03-14T08:26:06;1.83;;;1.15;;
18820;SDS011;9539;59.332;18.034;2023-03-14T08:28:28;2.67;;;1.05;;
18820;SDS011;9539;59.332;18.034;2023-03-14T08:30:50;3.85;;;1.20;;
18820;SDS011;9539;59.332;18.034;2023-03-14T08:33:14;2.53;;;1.25;;
18820;SDS011;9539;59.332;18.034;2023-03-14T08:35:37;2.83;;;1.10;;
18820;SDS011;9539;59.332;18.034;2023-03-14T08:37:59;4.57;;;1.20;;
18820;SDS011;9539;59.332;18.034;2023-03-14T08:40:21;1.85;;;1.20;;
18820;SDS011;9539;59.332;18.034;2023-03-14T08:42:43;1.90;;;1.00;;
18820;SDS011;9539;59.332;18.034;2023-03-14T08:45:05;1.55;;;1.05;;
18820;SDS011;9539;59.332;18.034;2023-03-14T08:47:29;1.90;;;1.17;;
18820;SDS011;9539;59.332;18.034;2023-03-14T08:49:52;2.05;;;0.82;;
18820;SDS011;9539;59.332;18.034;2023-03-14T08:52:14;4.78;;;1.30;;
18820;SDS011;9539;59.332;18.034;2023-03-14T08:54:37;1.92;;;1.20;;
18820;SDS011;9539;59.332;18.034;2023-03-14T08:56:59;2.85;;;1.25;;
18820;SDS011;9539;59.332;18.034;2023-03-14T08:59:21;2.55;;;1.10;;
18820;SDS011;9539;59.332;18.034;2023-03-14T09:01:43;1.30;;;0.90;;
18820;SDS011;9539;59.332;18.034;2023-03-14T09:04:05;1.98;;;1.00;;
18820;SDS011;9539;59.332;18.034;2023-03-14T09:06:29;1.90;;;0.93;;
18820;SDS011;9539;59.332;18.034;2023-03-14T09:08:51;1.90;;;0.98;;
18820;SDS011;9539;59.332;18.034;2023-03-14T09:11:13;1.58;;;0.90;;
18820;SDS011;9539;59.332;18.034;2023-03-14T09:13:35;1.48;;;0.80;;
18820;SDS011;9539;59.332;18.034;2023-03-14T09:15:57;1.20;;;1.10;;
18820;SDS011;9539;59.332;18.034;2023-03-14T09:18:19;1.08;;;0.80;;
18820;SDS011;9539;59.332;18.034;2023-03-14T09:20:41;0.80;;;0.80;;
18820;SDS011;9539;59.332;18.034;2023-03-14T09:23:04;0.88;;;0.80;;
18820;SDS011;9539;59.332;18.034;2023-03-14T09:25:26;4.15;;;1.00;;
18820;SDS011;9539;59.332;18.034;2023-03-14T09:27:48;1.42;;;0.75;;
18820;SDS011;9539;59.332;18.034;2023-03-14T09:30:10;0.75;;;0.75;;
18820;SDS011;9539;59.332;18.034;2023-03-14T09:32:33;0.70;;;0.70;;
18820;SDS011;9539;59.332;18.034;2023-03-14T09:34:55;0.70;;;0.70;;
18820;SDS011;9539;59.332;18.034;2023-03-14T09:37:17;0.93;;;0.90;;
18820;SDS011;9539;59.332;18.034;2023-03-14T09:39:41;0.70;;;0.70;;
18820;SDS011;9539;59.332;18.034;2023-03-14T09:42:04;1.27;;;0.82;;
18820;SDS011;9539;59.332;18.034;2023-03-14T09:44:29;0.85;;;0.85;;
18820;SDS011;9539;59.332;18.034;2023-03-14T09:46:53;2.78;;;1.00;;
18820;SDS011;9539;59.332;18.034;2023-03-14T09:49:19;2.17;;;0.90;;
18820;SDS011;9539;59.332;18.034;2023-03-14T09:51:42;1.70;;;1.08;;
18820;SDS011;9539;59.332;18.034;2023-03-14T09:54:08;1.20;;;1.10;;
18820;SDS011;9539;59.332;18.034;2023-03-14T09:56:46;1.10;;;1.00;;
18820;SDS011;9539;59.332;18.034;2023-03-14T09:59:08;2.28;;;1.00;;
18820;SDS011;9539;59.332;18.034;2023-03-14T10:01:34;2.53;;;0.95;;
18820;SDS011;9539;59.332;18.034;2023-03-14T10:03:56;3.53;;;1.38;;
18820;SDS011;9539;59.332;18.034;2023-03-14T10:06:19;1.38;;;1.20;;
18820;SDS011;9539;59.332;18.034;2023-03-14T10:08:45;3.78;;;1.40;;
18820;SDS011;9539;59.332;18.034;2023-03-14T10:11:09;1.63;;;0.90;;
18820;SDS011;9539;59.332;18.034;2023-03-14T10:13:36;1.52;;;1.33;;
18820;SDS011;9539;59.332;18.034;2023-03-14T10:16:09;0.85;;;0.85;;
18820;SDS011;9539;59.332;18.034;2023-03-14T10:18:31;1.13;;;1.05;;
18820;SDS011;9539;59.332;18.034;2023-03-14T10:21:01;1.52;;;0.90;;
18820;SDS011;9539;59.332;18.034;2023-03-14T10:23:27;0.90;;;0.88;;
18820;SDS011;9539;59.332;18.034;2023-03-14T10:25:59;3.22;;;1.00;;
18820;SDS011;9539;59.332;18.034;2023-03-14T10:28:25;0.90;;;0.90;;
18820;SDS011;9539;59.332;18.034;2023-03-14T10:30:50;1.10;;;1.00;;
18820;SDS011;9539;59.332;18.034;2023-03-14T10:33:19;1.27;;;0.93;;
18820;SDS011;9539;59.332;18.034;2023-03-14T10:35:42;1.13;;;0.80;;
18820;SDS011;9539;59.332;18.034;2023-03-14T10:38:04;2.00;;;1.13;;
18820;SDS011;9539;59.332;18.034;2023-03-14T10:40:27;0.95;;;0.90;;
18820;SDS011;9539;59.332;18.034;2023-03-14T10:42:51;1.55;;;0.90;;
18820;SDS011;9539;59.332;18.034;2023-03-14T10:45:22;2.25;;;1.00;;
18820;SDS011;9539;59.332;18.034;2023-03-14T10:47:53;4.30;;;1.60;;
18820;SDS011;9539;59.332;18.034;2023-03-14T10:50:21;1.23;;;0.90;;
18820;SDS011;9539;59.332;18.034;2023-03-14T10:52:47;1.00;;;0.90;;
18820;SDS011;9539;59.332;18.034;2023-03-14T10:55:11;1.63;;;1.00;;
18820;SDS011;9539;59.332;18.034;2023-03-14T10:57:37;1.35;;;1.15;;
18820;SDS011;9539;59.332;18.034;2023-03-14T11:00:00;1.67;;;1.58;;
18820;SDS011;9539;59.332;18.034;2023-03-14T11:02:31;3.72;;;1.20;;
18820;SDS011;9539;59.332;18.034;2023-03-14T11:05:07;2.65;;;1.10;;
18820;SDS011;9539;59.332;18.034;2023-03-14T11:07:37;1.60;;;1.10;;
18820;SDS011;9539;59.332;18.034;2023-03-14T11:10:03;1.88;;;1.10;;
18820;SDS011;9539;59.332;18.034;2023-03-14T11:12:38;1.98;;;1.10;;
18820;SDS011;9539;59.332;18.034;2023-03-14T11:15:09;1.50;;;1.10;;
18820;SDS011;9539;59.332;18.034;2023-03-14T11:17:38;1.10;;;0.90;;
18820;SDS011;9539;59.332;18.034;2023-03-14T11:20:16;2.78;;;1.13;;
18820;SDS011;9539;59.332;18.034;2023-03-14T11:22:55;1.38;;;1.20;;
18820;SDS011;9539;59.332;18.034;2023-03-14T11:25:25;1.52;;;0.95;;
18820;SDS011;9539;59.332;18.034;2023-03-14T11:27:55;1.17;;;1.08;;
18820;SDS011;9539;59.332;18.034;2023-03-14T11:30:24;2.30;;;1.17;;
18820;SDS011;9539;59.332;18.034;2023-03-14T11:32:55;0.80;;;0.80;;
18820;SDS011;9539;59.332;18.034;2023-03-14T11:35:24;1.48;;;1.02;;
18820;SDS011;9539;59.332;18.034;2023-03-14T11:37:52;1.45;;;1.23;;
18820;SDS011;9539;59.332;18.034;2023-03-14T11:40:17;2.45;;;1.17;;
18820;SDS011;9539;59.332;18.034;2023-03-14T11:42:42;2.65;;;1.10;;
18820;SDS011;9539;59.332;18.034;2023-03-14T11:45:10;3.30;;;1.30;;
18820;SDS011;9539;59.332;18.034;2023-03-14T11:47:41;1.20;;;1.10;;
18820;SDS011;9539;59.332;18.034;2023-03-14T11:50:03;2.25;;;1.10;;
18820;SDS011;9539;59.332;18.034;2023-03-14T11:52:36;1.20;;;1.10;;
18820;SDS011;9539;59.332;18.034;2023-03-14T11:55:04;2.22;;;1.10;;
18820;SDS011;9539;59.332;18.034;2023-03-14T11:57:32;1.80;;;1.10;;
18820;SDS011;9539;59.332;18.034;2023-03-14T11:59:55;0.82;;;0.82;;
18820;SDS011;9539;59.332;18.034;2023-03-14T12:02:25;3.17;;;1.02;;
18820;SDS011;9539;59.332;18.034;2023-03-14T12:05:20;1.40;;;0.95;;
18820;SDS011;9539;59.332;18.034;2023-03-14T12:10:59;5.22;;;1.10;;
18820;SDS011;9539;59.332;18.034;2023-03-14T12:13:27;1.38;;;0.95;;
18820;SDS011;9539;59.332;18.034;2023-03-14T12:15:53;1.38;;;0.90;;
18820;SDS011;9539;59.332;18.034;2023-03-14T12:18:19;1.63;;;0.90;;
18820;SDS011;9539;59.332;18.034;2023-03-14T12:20:42;1.80;;;1.00;;
18820;SDS011;9539;59.332;18.034;2023-03-14T12:23:15;1.63;;;1.10;;
18820;SDS011;9539;59.332;18.034;2023-03-14T12:25:37;3.95;;;1.30;;
18820;SDS011;9539;59.332;18.034;2023-03-14T12:28:04;1.10;;;1.00;;
18820;SDS011;9539;59.332;18.034;2023-03-14T12:30:38;2.20;;;1.20;;
18820;SDS011;9539;59.332;18.034;2023-03-14T12:35:57;1.80;;;1.63;;
18820;SDS011;9539;59.332;18.034;2023-03-14T12:38:23;1.10;;;1.10;;
18820;SDS011;9539;59.332;18.034;2023-03-14T12:40:54;1.67;;;1.20;;
18820;SDS011;9539;59.332;18.034;2023-03-14T12:43:28;7.80;;;1.63;;
18820;SDS011;9539;59.332;18.034;2023-03-14T12:46:06;0.98;;;0.98;;
18820;SDS011;9539;59.332;18.034;2023-03-14T12:48:30;1.25;;;1.02;;
18820;SDS011;9539;59.332;18.034;2023-03-14T12:50:54;5.78;;;1.42;;
18820;SDS011;9539;59.332;18.034;2023-03-14T12:56:17;3.88;;;1.20;;
18820;SDS011;9539;59.332;18.034;2023-03-14T12:58:47;3.47;;;1.17;;
18820;SDS011;9539;59.332;18.034;2023-03-14T13:01:20;2.80;;;1.38;;
18820;SDS011;9539;59.332;18.034;2023-03-14T13:03:43;2.75;;;1.17;;
18820;SDS011;9539;59.332;18.034;2023-03-14T13:06:08;1.95;;;1.40;;
18820;SDS011;9539;59.332;18.034;2023-03-14T13:08:33;2.47;;;1.20;;
18820;SDS011;9539;59.332;18.034;2023-03-14T13:10:58;3.08;;;1.50;;
18820;SDS011;9539;59.332;18.034;2023-03-14T13:13:20;1.42;;;1.20;;
18820;SDS011;9539;59.332;18.034;2023-03-14T13:15:45;3.40;;;1.70;;
18820;SDS011;9539;59.332;18.034;2023-03-14T13:18:11;4.38;;;1.52;;
18820;SDS011;9539;59.332;18.034;2023-03-14T13:20:35;1.83;;;1.50;;
18820;SDS011;9539;59.332;18.034;2023-03-14T13:22:59;2.13;;;1.75;;
18820;SDS011;9539;59.332;18.034;2023-03-14T13:25:21;4.78;;;2.40;;
18820;SDS011;9539;59.332;18.034;2023-03-14T13:27:43;3.83;;;1.75;;
18820;SDS011;9539;59.332;18.034;2023-03-14T13:30:12;1.52;;;1.20;;
18820;SDS011;9539;59.332;18.034;2023-03-14T13:32:39;5.97;;;1.70;;
18820;SDS011;9539;59.332;18.034;2023-03-14T13:35:13;2.70;;;1.80;;
18820;SDS011;9539;59.332;18.034;2023-03-14T13:37:39;2.80;;;1.38;;
18820;SDS011;9539;59.332;18.034;2023-03-14T13:40:01;3.65;;;1.90;;
18820;SDS011;9539;59.332;18.034;2023-03-14T13:42:25;5.38;;;2.10;;
18820;SDS011;9539;59.332;18.034;2023-03-14T13:44:48;5.22;;;1.40;;
18820;SDS011;9539;59.332;18.034;2023-03-14T13:47:15;3.55;;;1.80;;
18820;SDS011;9539;59.332;18.034;2023-03-14T13:49:41;3.58;;;1.45;;
18820;SDS011;9539;59.332;18.034;2023-03-14T13:52:20;2.67;;;1.70;;
18820;SDS011;9539;59.332;18.034;2023-03-14T13:54:44;3.65;;;1.70;;
18820;SDS011;9539;59.332;18.034;2023-03-14T13:57:06;7.55;;;1.73;;
18820;SDS011;9539;59.332;18.034;2023-03-14T13:59:28;3.55;;;1.95;;
18820;SDS011;9539;59.332;18.034;2023-03-14T14:01:51;1.65;;;1.45;;
18820;SDS011;9539;59.332;18.034;2023-03-14T14:04:14;3.95;;;1.60;;
18820;SDS011;9539;59.332;18.034;2023-03-14T14:06:44;1.63;;;1.52;;
18820;SDS011;9539;59.332;18.034;2023-03-14T14:09:10;2.63;;;1.50;;
18820;SDS011;9539;59.332;18.034;2023-03-14T14:11:37;2.05;;;1.55;;
18820;SDS011;9539;59.332;18.034;2023-03-14T14:14:03;4.25;;;2.13;;
18820;SDS011;9539;59.332;18.034;2023-03-14T14:16:27;1.75;;;1.63;;
18820;SDS011;9539;59.332;18.034;2023-03-14T14:18:51;2.25;;;1.50;;
18820;SDS011;9539;59.332;18.034;2023-03-14T14:21:14;2.72;;;1.60;;
18820;SDS011;9539;59.332;18.034;2023-03-14T14:23:38;2.65;;;1.75;;
18820;SDS011;9539;59.332;18.034;2023-03-14T14:26:00;1.83;;;1.40;;
18820;SDS011;9539;59.332;18.034;2023-03-14T14:28:23;1.50;;;1.40;;
18820;SDS011;9539;59.332;18.034;2023-03-14T14:30:53;1.45;;;1.35;;
18820;SDS011;9539;59.332;18.034;2023-03-14T14:33:21;1.98;;;1.40;;
18820;SDS011;9539;59.332;18.034;2023-03-14T14:35:48;1.65;;;1.50;;
18820;SDS011;9539;59.332;18.034;2023-03-14T14:38:16;2.97;;;1.40;;
18820;SDS011;9539;59.332;18.034;2023-03-14T14:40:44;2.20;;;1.50;;
18820;SDS011;9539;59.332;18.034;2023-03-14T14:43:11;1.40;;;1.30;;